createdAt,value
2022-11-29T00:01:55.389Z,96286.38
2022-11-29T00:04:40.886Z,96294.09
2022-11-29T00:07:26.159Z,96292.25
2022-11-29T00:10:10.924Z,96287.41
2022-11-29T00:12:55.691Z,96293.34
2022-11-29T00:15:40.659Z,96286.59
2022-11-29T00:18:25.490Z,96283.69
2022-11-29T00:21:10.494Z,96281.88
2022-11-29T00:23:55.517Z,96277.00
2022-11-29T00:26:40.455Z,96275.19
2022-11-29T00:29:25.472Z,96268.41
2022-11-29T00:32:10.273Z,96278.22
2022-11-29T00:34:59.276Z,96273.50
2022-11-29T00:37:44.633Z,96273.06
2022-11-29T00:40:29.391Z,96269.63
2022-11-29T00:43:14.353Z,96267.78
2022-11-29T00:45:59.214Z,96271.28
2022-11-29T00:48:44.049Z,96263.22
2022-11-29T00:51:28.868Z,96268.41
2022-11-29T00:54:13.855Z,96263.09
2022-11-29T00:56:58.767Z,96267.81
2022-11-29T00:59:43.610Z,96268.56
2022-11-29T01:02:28.688Z,96269.66
2022-11-29T01:05:13.428Z,96267.41
2022-11-29T01:07:58.389Z,96268.22
2022-11-29T01:10:43.126Z,96263.09
2022-11-29T01:13:27.892Z,96256.78
2022-11-29T01:16:12.805Z,96263.34
2022-11-29T01:18:57.707Z,96263.94
2022-11-29T01:21:42.570Z,96261.66
2022-11-29T01:24:27.470Z,96258.97
2022-11-29T01:27:12.536Z,96262.41
2022-11-29T01:29:57.500Z,96262.47
2022-11-29T01:32:42.448Z,96258.44
2022-11-29T01:35:27.302Z,96259.03
2022-11-29T01:38:12.242Z,96258.63
2022-11-29T01:40:57.153Z,96254.16
2022-11-29T01:43:42.182Z,96258.00
2022-11-29T01:46:27.327Z,96257.81
2022-11-29T01:49:12.511Z,96257.38
2022-11-29T01:51:57.598Z,96255.16
2022-11-29T01:54:42.772Z,96259.00
2022-11-29T01:57:27.965Z,96253.75
2022-11-29T02:00:12.807Z,96255.34
2022-11-29T02:02:57.848Z,96249.66
2022-11-29T02:05:42.692Z,96253.09
2022-11-29T02:08:27.598Z,96240.44
2022-11-29T02:11:12.538Z,96236.97
2022-11-29T02:13:57.311Z,96234.09
2022-11-29T02:16:42.226Z,96236.38
2022-11-29T02:19:27.308Z,96243.66
2022-11-29T02:22:12.129Z,96240.00
2022-11-29T02:24:57.124Z,96243.88
2022-11-29T02:27:41.877Z,96238.38
2022-11-29T02:30:26.726Z,96236.31
2022-11-29T02:33:11.574Z,96237.50
2022-11-29T02:35:56.694Z,96238.53
2022-11-29T02:38:41.647Z,96233.25
2022-11-29T02:41:26.519Z,96232.06
2022-11-29T02:44:11.475Z,96231.66
2022-11-29T02:46:56.496Z,96240.03
2022-11-29T02:49:41.431Z,96236.56
2022-11-29T02:52:26.374Z,96241.84
2022-11-29T02:55:11.309Z,96249.91
2022-11-29T02:57:56.221Z,96240.19
2022-11-29T03:00:41.332Z,96248.56
2022-11-29T03:03:26.188Z,96242.00
2022-11-29T03:06:11.185Z,96246.72
2022-11-29T03:08:55.986Z,96244.81
2022-11-29T03:11:40.989Z,96245.25
2022-11-29T03:14:25.865Z,96250.19
2022-11-29T03:17:10.733Z,96232.50
2022-11-29T03:19:55.697Z,96237.59
2022-11-29T03:22:40.629Z,96239.22
2022-11-29T03:25:25.689Z,96234.72
2022-11-29T03:28:10.551Z,96246.53
2022-11-29T03:30:55.601Z,96240.84
2022-11-29T03:33:40.825Z,96243.25
2022-11-29T03:36:25.643Z,96239.19
2022-11-29T03:39:10.606Z,96244.72
2022-11-29T03:41:55.441Z,96243.50
2022-11-29T03:44:40.353Z,96233.91
2022-11-29T03:47:25.164Z,96238.78
2022-11-29T03:50:10.116Z,96239.63
2022-11-29T03:52:55.046Z,96241.88
2022-11-29T03:55:39.979Z,96235.13
2022-11-29T03:58:24.731Z,96240.44
2022-11-29T04:01:09.673Z,96239.00
2022-11-29T04:03:54.541Z,96240.84
2022-11-29T04:06:39.446Z,96240.47
2022-11-29T04:09:24.400Z,96243.31
2022-11-29T04:12:09.151Z,96245.56
2022-11-29T04:14:53.995Z,96256.78
2022-11-29T04:17:38.874Z,96245.72
2022-11-29T04:20:23.822Z,96250.22
2022-11-29T04:23:08.569Z,96251.47
2022-11-29T04:25:53.541Z,96250.66
2022-11-29T04:28:38.418Z,96250.44
2022-11-29T04:31:23.482Z,96248.81
2022-11-29T04:34:08.321Z,96260.47
2022-11-29T04:36:53.143Z,96263.53
2022-11-29T04:39:38.078Z,96255.75
2022-11-29T04:42:23.035Z,96260.84
2022-11-29T04:45:07.993Z,96261.69
2022-11-29T04:47:52.690Z,96272.53
2022-11-29T04:50:37.431Z,96262.31
2022-11-29T04:53:22.243Z,96262.47
2022-11-29T04:56:07.153Z,96263.31
2022-11-29T04:58:52.093Z,96263.72
2022-11-29T05:01:37.072Z,96269.03
2022-11-29T05:04:22.051Z,96268.81
2022-11-29T05:07:06.936Z,96272.50
2022-11-29T05:09:51.820Z,96269.59
2022-11-29T05:12:36.585Z,96275.28
2022-11-29T05:15:21.462Z,96276.13
2022-11-29T05:18:06.309Z,96284.22
2022-11-29T05:20:51.329Z,96279.63
2022-11-29T05:23:36.321Z,96280.75
2022-11-29T05:26:21.118Z,96287.59
2022-11-29T05:29:06.073Z,96289.38
2022-11-29T05:31:50.982Z,96289.59
2022-11-29T05:34:35.918Z,96293.00
2022-11-29T05:37:20.787Z,96285.84
2022-11-29T05:40:05.953Z,96287.81
2022-11-29T05:42:50.833Z,96293.72
2022-11-29T05:45:35.659Z,96291.56
2022-11-29T05:48:20.650Z,96290.44
2022-11-29T05:51:05.649Z,96293.34
2022-11-29T05:53:50.745Z,96302.47
2022-11-29T05:56:35.629Z,96300.81
2022-11-29T05:59:20.658Z,96296.34
2022-11-29T06:02:05.447Z,96290.25
2022-11-29T06:04:50.508Z,96298.47
2022-11-29T06:07:35.376Z,96295.13
2022-11-29T06:10:20.337Z,96297.16
2022-11-29T06:13:05.202Z,96303.09
2022-11-29T06:15:50.175Z,96309.47
2022-11-29T06:18:35.105Z,96310.31
2022-11-29T06:21:20.036Z,96306.63
2022-11-29T06:24:05.019Z,96314.34
2022-11-29T06:26:49.917Z,96309.44
2022-11-29T06:29:34.784Z,96312.56
2022-11-29T06:32:19.619Z,96313.72
2022-11-29T06:35:04.436Z,96314.16
2022-11-29T06:37:49.270Z,96320.06
2022-11-29T06:40:34.129Z,96322.53
2022-11-29T06:43:19.196Z,96321.38
2022-11-29T06:46:04.064Z,96320.69
2022-11-29T06:48:49.158Z,96333.13
2022-11-29T06:51:34.100Z,96330.78
2022-11-29T06:54:18.890Z,96332.25
2022-11-29T06:57:03.792Z,96339.59
2022-11-29T06:59:48.836Z,96333.81
2022-11-29T07:02:33.789Z,96333.25
2022-11-29T07:05:18.600Z,96327.03
2022-11-29T07:08:03.581Z,96333.34
2022-11-29T07:10:48.819Z,96336.69
2022-11-29T07:13:33.793Z,96340.22
2022-11-29T07:16:18.674Z,96345.06
2022-11-29T07:19:03.502Z,96344.34
2022-11-29T07:21:48.361Z,96353.34
2022-11-29T07:24:33.233Z,96352.75
2022-11-29T07:27:18.030Z,96357.41
2022-11-29T07:30:03.017Z,96346.59
2022-11-29T07:32:51.341Z,96348.03
2022-11-29T07:35:37.731Z,96349.25
2022-11-29T07:38:22.664Z,96349.72
2022-11-29T07:41:07.757Z,96353.00
2022-11-29T07:43:52.582Z,96347.59
2022-11-29T07:46:37.594Z,96358.22
2022-11-29T07:49:22.520Z,96357.94
2022-11-29T07:52:07.415Z,96358.72
2022-11-29T07:54:52.332Z,96353.50
2022-11-29T07:57:37.282Z,96360.00
2022-11-29T08:00:22.210Z,96362.16
2022-11-29T08:03:07.135Z,96370.13
2022-11-29T08:05:52.067Z,96360.94
2022-11-29T08:08:43.545Z,96363.75
2022-11-29T08:11:29.275Z,96368.03
2022-11-29T08:14:14.149Z,96371.13
2022-11-29T08:16:59.052Z,96368.88
2022-11-29T08:19:47.019Z,96363.75
2022-11-29T08:22:31.839Z,96363.38
2022-11-29T08:25:16.629Z,96371.59
2022-11-29T08:28:01.452Z,96380.38
2022-11-29T08:30:46.342Z,96374.56
2022-11-29T08:33:31.263Z,96377.75
2022-11-29T08:36:16.188Z,96373.59
2022-11-29T08:39:07.554Z,96377.53
2022-11-29T08:41:53.944Z,96374.69
2022-11-29T08:44:38.958Z,96378.56
2022-11-29T08:47:23.816Z,96379.63
2022-11-29T08:50:08.698Z,96385.13
2022-11-29T08:52:53.421Z,96384.31
2022-11-29T08:55:38.592Z,96390.44
2022-11-29T08:58:23.380Z,96392.91
2022-11-29T09:01:08.363Z,96392.91
2022-11-29T09:03:53.118Z,96397.41
2022-11-29T09:06:38.117Z,96398.06
2022-11-29T09:09:23.041Z,96392.31
2022-11-29T09:12:07.886Z,96399.06
2022-11-29T09:14:52.725Z,96398.22
2022-11-29T09:17:37.531Z,96400.09
2022-11-29T09:20:22.592Z,96395.78
2022-11-29T09:23:07.377Z,96395.38
2022-11-29T09:25:52.302Z,96399.44
2022-11-29T09:28:37.166Z,96399.06
2022-11-29T09:31:22.100Z,96397.84
2022-11-29T09:34:07.001Z,96395.31
2022-11-29T09:36:51.839Z,96400.84
2022-11-29T09:39:36.676Z,96402.44
2022-11-29T09:42:21.623Z,96399.25
2022-11-29T09:45:06.405Z,96400.09
2022-11-29T09:47:51.382Z,96401.41
2022-11-29T09:50:36.270Z,96401.78
2022-11-29T09:53:21.202Z,96388.22
2022-11-29T09:56:06.209Z,96390.44
2022-11-29T09:58:51.026Z,96392.50
2022-11-29T10:01:35.966Z,96403.59
2022-11-29T10:04:20.981Z,96405.84
2022-11-29T10:07:05.977Z,96400.38
2022-11-29T10:09:50.926Z,96394.75
2022-11-29T10:12:35.798Z,96388.31
2022-11-29T10:15:20.826Z,96398.13
2022-11-29T10:18:05.625Z,96394.88
2022-11-29T10:20:50.549Z,96394.19
2022-11-29T10:23:35.539Z,96397.50
2022-11-29T10:26:20.451Z,96397.50
2022-11-29T10:29:05.295Z,96388.03
2022-11-29T10:31:50.176Z,96389.16
2022-11-29T10:34:35.138Z,96399.38
2022-11-29T10:37:19.982Z,96397.78
2022-11-29T10:40:04.869Z,96398.41
2022-11-29T10:42:49.709Z,96401.47
2022-11-29T10:45:34.705Z,96393.81
2022-11-29T10:48:19.595Z,96396.59
2022-11-29T10:51:04.422Z,96389.38
2022-11-29T10:53:49.447Z,96389.38
2022-11-29T10:56:34.271Z,96382.75
2022-11-29T10:59:19.177Z,96379.00
2022-11-29T11:02:04.006Z,96386.25
2022-11-29T11:04:49.066Z,96382.94
2022-11-29T11:07:34.305Z,96378.72
2022-11-29T11:10:19.186Z,96377.91
2022-11-29T11:13:04.085Z,96378.75
2022-11-29T11:15:48.993Z,96377.88
2022-11-29T11:18:33.936Z,96370.50
2022-11-29T11:21:18.810Z,96377.19
2022-11-29T11:24:03.674Z,96369.63
2022-11-29T11:26:48.499Z,96369.94
2022-11-29T11:29:33.461Z,96368.53
2022-11-29T11:32:18.591Z,96368.13
2022-11-29T11:35:03.570Z,96374.44
2022-11-29T11:37:48.634Z,96367.63
2022-11-29T11:40:33.758Z,96374.50
2022-11-29T11:43:18.733Z,96376.56
2022-11-29T11:46:05.125Z,96374.03
2022-11-29T11:48:52.031Z,96367.84
2022-11-29T11:51:37.251Z,96369.66
2022-11-29T11:54:22.057Z,96369.13
2022-11-29T11:57:07.052Z,96373.19
2022-11-29T11:59:51.871Z,96375.78
2022-11-29T12:02:39.937Z,96372.47
2022-11-29T12:05:25.255Z,96380.44
2022-11-29T12:08:10.135Z,96383.13
2022-11-29T12:10:55.104Z,96375.59
2022-11-29T12:13:40.008Z,96374.34
2022-11-29T12:16:24.965Z,96366.28
2022-11-29T12:19:09.942Z,96372.94
2022-11-29T12:21:54.845Z,96369.78
2022-11-29T12:24:39.779Z,96381.81
2022-11-29T12:27:24.743Z,96378.13
2022-11-29T12:30:09.630Z,96375.47
2022-11-29T12:32:54.512Z,96380.63
2022-11-29T12:35:39.360Z,96379.47
2022-11-29T12:38:24.218Z,96371.28
2022-11-29T12:41:09.250Z,96376.09
2022-11-29T12:43:54.048Z,96381.22
2022-11-29T12:46:39.080Z,96378.41
2022-11-29T12:49:23.894Z,96374.94
2022-11-29T12:52:08.771Z,96381.72
2022-11-29T12:54:53.888Z,96376.94
2022-11-29T12:57:38.820Z,96371.94
2022-11-29T13:00:23.649Z,96377.81
2022-11-29T13:03:08.623Z,96372.00
2022-11-29T13:05:53.465Z,96363.88
2022-11-29T13:08:38.263Z,96360.28
2022-11-29T13:11:23.140Z,96364.03
2022-11-29T13:14:40.961Z,96361.72
2022-11-29T13:17:13.009Z,96360.44
2022-11-29T13:19:57.859Z,96363.75
2022-11-29T13:22:42.737Z,96360.84
2022-11-29T13:25:27.650Z,96353.28
2022-11-29T13:28:12.569Z,96351.25
2022-11-29T13:30:57.442Z,96351.78
2022-11-29T13:33:42.368Z,96354.13
2022-11-29T13:36:27.215Z,96356.97
2022-11-29T13:39:12.137Z,96356.28
2022-11-29T13:41:57.011Z,96364.63
2022-11-29T13:44:41.797Z,96358.13
2022-11-29T13:47:26.633Z,96357.78
2022-11-29T13:50:11.501Z,96362.13
2022-11-29T13:52:57.637Z,96365.22
2022-11-29T13:55:42.641Z,96355.94
2022-11-29T13:58:27.556Z,96364.59
2022-11-29T14:01:12.385Z,96370.69
2022-11-29T14:03:57.202Z,96368.56
2022-11-29T14:06:42.019Z,96370.13
2022-11-29T14:09:27.078Z,96371.69
2022-11-29T14:12:11.852Z,96357.03
2022-11-29T14:14:56.730Z,96368.16
2022-11-29T14:17:41.700Z,96366.19
2022-11-29T14:20:26.594Z,96357.81
2022-11-29T14:23:11.700Z,96368.78
2022-11-29T14:25:56.529Z,96364.41
2022-11-29T14:28:41.364Z,96367.91
2022-11-29T14:31:26.187Z,96360.69
2022-11-29T14:34:11.089Z,96368.72
2022-11-29T14:36:55.911Z,96363.16
2022-11-29T14:39:41.102Z,96372.94
2022-11-29T14:42:26.081Z,96375.50
2022-11-29T14:45:10.938Z,96383.28
2022-11-29T14:47:55.876Z,96386.97
2022-11-29T14:50:40.716Z,96381.22
2022-11-29T14:53:25.729Z,96373.94
2022-11-29T14:56:10.563Z,96378.84
2022-11-29T14:58:55.632Z,96371.97
2022-11-29T15:01:40.614Z,96382.41
2022-11-29T15:04:25.960Z,96385.31
2022-11-29T15:07:10.912Z,96387.50
2022-11-29T15:09:55.828Z,96386.31
2022-11-29T15:12:40.832Z,96390.59
2022-11-29T15:15:25.749Z,96379.28
2022-11-29T15:18:10.868Z,96384.53
2022-11-29T15:20:55.715Z,96382.06
2022-11-29T15:23:40.533Z,96386.38
2022-11-29T15:26:25.462Z,96385.34
2022-11-29T15:29:10.461Z,96391.09
2022-11-29T15:31:55.431Z,96390.28
2022-11-29T15:34:40.788Z,96387.78
2022-11-29T15:37:26.077Z,96391.69
2022-11-29T15:40:10.858Z,96395.78
2022-11-29T15:42:55.861Z,96402.50
2022-11-29T15:45:40.829Z,96402.38
2022-11-29T15:48:25.615Z,96403.75
2022-11-29T15:51:10.585Z,96400.63
2022-11-29T15:54:10.155Z,96406.38
2022-11-29T15:56:57.837Z,96412.94
2022-11-29T15:59:42.601Z,96407.75
2022-11-29T16:02:27.556Z,96408.31
2022-11-29T16:05:12.558Z,96407.78
2022-11-29T16:07:57.470Z,96404.66
2022-11-29T16:10:42.736Z,96405.81
2022-11-29T16:13:27.662Z,96415.13
2022-11-29T16:16:12.649Z,96404.44
2022-11-29T16:18:57.971Z,96417.69
2022-11-29T16:21:42.849Z,96414.63
2022-11-29T16:24:27.732Z,96418.66
2022-11-29T16:27:12.869Z,96408.41
2022-11-29T16:29:58.219Z,96416.31
2022-11-29T16:32:43.249Z,96417.56
2022-11-29T16:35:28.475Z,96417.78
2022-11-29T16:38:13.679Z,96417.06
2022-11-29T16:40:58.665Z,96416.50
2022-11-29T16:43:43.601Z,96418.13
2022-11-29T16:46:28.377Z,96416.06
2022-11-29T16:49:13.387Z,96417.03
2022-11-29T16:51:58.176Z,96427.00
2022-11-29T16:54:43.140Z,96424.09
2022-11-29T16:57:28.483Z,96416.88
2022-11-29T17:00:13.752Z,96428.25
2022-11-29T17:02:58.905Z,96423.75
2022-11-29T17:05:44.954Z,96428.88
2022-11-29T17:08:30.318Z,96422.00
2022-11-29T17:11:15.201Z,96418.31
2022-11-29T17:14:00.125Z,96423.41
2022-11-29T17:16:45.082Z,96427.94
2022-11-29T17:19:30.421Z,96425.94
2022-11-29T17:22:15.303Z,96424.97
2022-11-29T17:25:00.204Z,96419.28
2022-11-29T17:27:45.187Z,96422.28
2022-11-29T17:30:30.161Z,96426.88
2022-11-29T17:33:15.172Z,96424.72
2022-11-29T17:36:00.106Z,96426.56
2022-11-29T17:38:44.970Z,96418.16
2022-11-29T17:41:29.877Z,96429.63
2022-11-29T17:44:14.904Z,96432.47
2022-11-29T17:46:59.892Z,96434.13
2022-11-29T17:49:45.047Z,96440.09
2022-11-29T17:52:30.233Z,96444.16
2022-11-29T17:55:20.412Z,96441.91
2022-11-29T17:58:05.935Z,96444.72
2022-11-29T18:00:51.160Z,96443.38
2022-11-29T18:03:35.979Z,96450.22
2022-11-29T18:06:21.054Z,96455.25
2022-11-29T18:09:05.830Z,96450.09
2022-11-29T18:11:50.935Z,96453.88
2022-11-29T18:14:35.787Z,96453.91
2022-11-29T18:17:20.678Z,96459.47
2022-11-29T18:20:05.478Z,96453.50
2022-11-29T18:22:50.439Z,96454.88
2022-11-29T18:25:39.871Z,96455.28
2022-11-29T18:28:25.121Z,96466.41
2022-11-29T18:31:10.139Z,96464.78
2022-11-29T18:33:54.975Z,96470.25
2022-11-29T18:36:39.828Z,96466.25
2022-11-29T18:39:24.865Z,96468.69
2022-11-29T18:42:09.793Z,96472.88
2022-11-29T18:44:58.711Z,96472.25
2022-11-29T18:47:44.409Z,96473.19
2022-11-29T18:50:29.313Z,96469.00
2022-11-29T18:53:14.516Z,96476.38
2022-11-29T18:55:59.257Z,96466.78
2022-11-29T18:58:44.296Z,96477.31
2022-11-29T19:01:29.232Z,96471.72
2022-11-29T19:04:14.126Z,96471.53
2022-11-29T19:06:59.216Z,96476.28
2022-11-29T19:09:43.988Z,96476.66
2022-11-29T19:12:29.062Z,96484.03
2022-11-29T19:15:13.876Z,96485.53
2022-11-29T19:17:58.793Z,96484.84
2022-11-29T19:20:43.752Z,96492.41
2022-11-29T19:23:28.671Z,96484.97
2022-11-29T19:26:13.467Z,96486.94
2022-11-29T19:28:58.484Z,96490.41
2022-11-29T19:31:43.417Z,96487.03
2022-11-29T19:34:28.446Z,96487.03
2022-11-29T19:37:13.444Z,96489.22
2022-11-29T19:39:58.417Z,96482.34
2022-11-29T19:42:43.264Z,96491.34
2022-11-29T19:45:28.327Z,96496.56
2022-11-29T19:48:13.348Z,96489.69
2022-11-29T19:50:58.312Z,96491.47
2022-11-29T19:53:43.417Z,96490.25
2022-11-29T19:56:28.434Z,96490.00
2022-11-29T19:59:13.525Z,96488.16
2022-11-29T20:01:59.073Z,96490.31
2022-11-29T20:04:44.616Z,96490.44
2022-11-29T20:07:29.670Z,96489.97
2022-11-29T20:10:15.150Z,96495.94
2022-11-29T20:12:59.953Z,96496.84
2022-11-29T20:15:45.086Z,96494.75
2022-11-29T20:18:30.505Z,96498.47
2022-11-29T20:21:15.653Z,96501.53
2022-11-29T20:24:00.626Z,96501.00
2022-11-29T20:26:45.533Z,96498.34
2022-11-29T20:29:30.564Z,96501.34
2022-11-29T20:32:15.634Z,96506.59
2022-11-29T20:35:00.605Z,96499.28
2022-11-29T20:37:45.437Z,96496.38
2022-11-29T20:40:30.524Z,96502.22
2022-11-29T20:43:15.549Z,96494.31
2022-11-29T20:46:00.437Z,96495.13
2022-11-29T20:48:45.204Z,96498.09
2022-11-29T20:51:30.311Z,96498.03
2022-11-29T20:54:15.537Z,96498.50
2022-11-29T20:57:00.491Z,96500.34
2022-11-29T20:59:45.931Z,96504.00
2022-11-29T21:02:30.990Z,96504.09
2022-11-29T21:05:16.130Z,96505.31
2022-11-29T21:08:01.026Z,96510.25
2022-11-29T21:10:46.494Z,96511.28
2022-11-29T21:13:31.454Z,96512.88
2022-11-29T21:16:16.297Z,96513.31
2022-11-29T21:19:01.317Z,96505.25
2022-11-29T21:21:46.014Z,96505.03
2022-11-29T21:24:30.907Z,96508.06
2022-11-29T21:27:15.781Z,96504.50
2022-11-29T21:30:00.549Z,96506.09
2022-11-29T21:32:45.328Z,96508.47
2022-11-29T21:35:30.406Z,96505.28
2022-11-29T21:38:15.569Z,96505.84
2022-11-29T21:41:00.542Z,96508.75
2022-11-29T21:44:05.623Z,96506.34
2022-11-29T21:46:50.578Z,96507.56
2022-11-29T21:49:35.429Z,96515.69
2022-11-29T21:52:22.721Z,96508.63
2022-11-29T21:55:08.298Z,96517.50
2022-11-29T21:57:53.077Z,96512.22
2022-11-29T22:00:37.996Z,96512.31
2022-11-29T22:03:22.967Z,96513.22
2022-11-29T22:06:08.035Z,96511.09
2022-11-29T22:08:52.914Z,96506.09
2022-11-29T22:11:37.888Z,96513.84
2022-11-29T22:14:22.702Z,96511.09
2022-11-29T22:17:07.588Z,96506.50
2022-11-29T22:19:52.297Z,96508.88
2022-11-29T22:22:37.152Z,96505.28
2022-11-29T22:25:21.978Z,96510.66
2022-11-29T22:28:06.976Z,96507.31
2022-11-29T22:30:51.757Z,96509.75
2022-11-29T22:33:36.837Z,96503.63
2022-11-29T22:36:21.760Z,96514.72
2022-11-29T22:39:06.646Z,96515.34
2022-11-29T22:41:54.667Z,96508.63
2022-11-29T22:44:39.803Z,96513.28
2022-11-29T22:47:24.789Z,96529.41
2022-11-29T22:50:09.688Z,96515.03
2022-11-29T22:52:54.508Z,96528.81
2022-11-29T22:55:39.515Z,96530.03
2022-11-29T22:58:24.359Z,96526.66
2022-11-29T23:01:09.547Z,96522.44
2022-11-29T23:03:54.751Z,96519.53
2022-11-29T23:06:39.624Z,96526.88
2022-11-29T23:09:24.505Z,96518.53
2022-11-29T23:12:09.441Z,96526.78
2022-11-29T23:14:56.489Z,96523.88
2022-11-29T23:17:41.756Z,96516.97
2022-11-29T23:20:26.431Z,96523.75
2022-11-29T23:23:11.251Z,96517.31
2022-11-29T23:25:56.171Z,96513.44
2022-11-29T23:28:41.102Z,96513.66
2022-11-29T23:31:26.028Z,96514.19
2022-11-29T23:34:10.885Z,96515.75
2022-11-29T23:36:55.710Z,96511.16
2022-11-29T23:39:40.651Z,96508.44
2022-11-29T23:42:25.578Z,96502.91
2022-11-29T23:45:10.508Z,96509.41
2022-11-29T23:47:55.278Z,96507.97
2022-11-29T23:50:40.251Z,96504.94
2022-11-29T23:53:25.183Z,96503.50
2022-11-29T23:56:10.083Z,96509.56
2022-11-29T23:58:55.099Z,96509.09
